sensor_id;sensor_type;location;lat;lon;timestamp;pressure;altitude;pressure_sealevel;temperature;humidity
54870;BME280;40756;-37.950;145.008;2022-07-12T00:00:17;101573.72;;;11.22;55.16
54870;BME280;40756;-37.950;145.008;2022-07-12T00:02:47;101581.44;;;10.49;56.46
54870;BME280;40756;-37.950;145.008;2022-07-12T00:05:16;101576.15;;;11.20;55.80
54870;BME280;40756;-37.950;145.008;2022-07-12T00:07:46;101576.93;;;11.28;55.78
54870;BME280;40756;-37.950;145.008;2022-07-12T00:10:16;101577.80;;;10.73;55.93
54870;BME280;40756;-37.950;145.008;2022-07-12T00:12:46;101575.93;;;10.59;56.39
54870;BME280;40756;-37.950;145.008;2022-07-12T00:15:16;101574.72;;;11.10;55.97
54870;BME280;40756;-37.950;145.008;2022-07-12T00:17:45;101574.86;;;10.95;56.14
54870;BME280;40756;-37.950;145.008;2022-07-12T00:20:15;101573.01;;;10.57;56.68
54870;BME280;40756;-37.950;145.008;2022-07-12T00:22:45;101570.80;;;10.82;56.32
54870;BME280;40756;-37.950;145.008;2022-07-12T00:25:15;101564.27;;;11.21;55.64
54870;BME280;40756;-37.950;145.008;2022-07-12T00:27:44;101563.41;;;11.29;55.72
54870;BME280;40756;-37.950;145.008;2022-07-12T00:30:14;101561.48;;;11.48;55.65
54870;BME280;40756;-37.950;145.008;2022-07-12T00:32:44;101558.65;;;11.46;55.96
54870;BME280;40756;-37.950;145.008;2022-07-12T00:35:14;101556.61;;;11.03;56.17
54870;BME280;40756;-37.950;145.008;2022-07-12T00:37:44;101555.91;;;10.10;57.32
54870;BME280;40756;-37.950;145.008;2022-07-12T00:40:13;101553.27;;;10.77;57.43
54870;BME280;40756;-37.950;145.008;2022-07-12T00:42:43;101552.21;;;10.88;57.07
54870;BME280;40756;-37.950;145.008;2022-07-12T00:45:13;101551.95;;;10.63;57.96
54870;BME280;40756;-37.950;145.008;2022-07-12T00:47:44;101549.71;;;10.63;57.91
54870;BME280;40756;-37.950;145.008;2022-07-12T00:50:16;101550.70;;;10.77;57.70
54870;BME280;40756;-37.950;145.008;2022-07-12T00:52:48;101541.23;;;11.09;57.25
54870;BME280;40756;-37.950;145.008;2022-07-12T00:55:19;101544.42;;;10.51;58.17
54870;BME280;40756;-37.950;145.008;2022-07-12T00:57:50;101538.39;;;10.88;57.55
54870;BME280;40756;-37.950;145.008;2022-07-12T01:00:22;101538.68;;;10.55;58.50
54870;BME280;40756;-37.950;145.008;2022-07-12T01:02:54;101532.52;;;11.30;57.63
54870;BME280;40756;-37.950;145.008;2022-07-12T01:05:26;101531.74;;;11.70;57.45
54870;BME280;40756;-37.950;145.008;2022-07-12T01:07:56;101530.12;;;11.65;57.23
54870;BME280;40756;-37.950;145.008;2022-07-12T01:10:27;101532.23;;;11.43;57.25
54870;BME280;40756;-37.950;145.008;2022-07-12T01:12:59;101529.16;;;10.86;57.38
54870;BME280;40756;-37.950;145.008;2022-07-12T01:15:30;101528.87;;;11.13;57.21
54870;BME280;40756;-37.950;145.008;2022-07-12T01:18:00;101521.71;;;11.63;56.82
54870;BME280;40756;-37.950;145.008;2022-07-12T01:20:30;101519.83;;;11.43;56.61
54870;BME280;40756;-37.950;145.008;2022-07-12T01:23:01;101517.57;;;11.90;56.66
54870;BME280;40756;-37.950;145.008;2022-07-12T01:25:31;101515.76;;;11.63;57.01
54870;BME280;40756;-37.950;145.008;2022-07-12T01:28:01;101515.92;;;11.65;56.54
54870;BME280;40756;-37.950;145.008;2022-07-12T01:30:30;101515.00;;;12.07;55.76
54870;BME280;40756;-37.950;145.008;2022-07-12T01:33:01;101512.02;;;11.79;55.61
54870;BME280;40756;-37.950;145.008;2022-07-12T01:35:31;101510.25;;;11.90;56.10
54870;BME280;40756;-37.950;145.008;2022-07-12T01:38:02;101508.51;;;11.58;56.01
54870;BME280;40756;-37.950;145.008;2022-07-12T01:40:32;101503.85;;;11.91;55.97
54870;BME280;40756;-37.950;145.008;2022-07-12T01:43:01;101501.10;;;11.65;56.05
54870;BME280;40756;-37.950;145.008;2022-07-12T01:45:31;101499.78;;;10.92;56.72
54870;BME280;40756;-37.950;145.008;2022-07-12T01:48:00;101499.00;;;11.44;56.30
54870;BME280;40756;-37.950;145.008;2022-07-12T01:50:30;101496.47;;;11.60;56.50
54870;BME280;40756;-37.950;145.008;2022-07-12T01:53:02;101495.05;;;11.64;56.76
54870;BME280;40756;-37.950;145.008;2022-07-12T01:55:34;101493.59;;;11.82;56.48
54870;BME280;40756;-37.950;145.008;2022-07-12T01:58:04;101490.64;;;11.78;56.38
54870;BME280;40756;-37.950;145.008;2022-07-12T02:00:34;101486.51;;;11.79;56.83
54870;BME280;40756;-37.950;145.008;2022-07-12T02:03:04;101481.10;;;11.42;56.58
54870;BME280;40756;-37.950;145.008;2022-07-12T02:05:35;101480.22;;;11.55;56.51
54870;BME280;40756;-37.950;145.008;2022-07-12T02:08:05;101476.72;;;11.78;56.05
54870;BME280;40756;-37.950;145.008;2022-07-12T02:10:34;101475.67;;;12.01;55.53
54870;BME280;40756;-37.950;145.008;2022-07-12T02:13:05;101473.58;;;11.94;56.02
54870;BME280;40756;-37.950;145.008;2022-07-12T02:15:34;101469.83;;;11.57;56.40
54870;BME280;40756;-37.950;145.008;2022-07-12T02:18:04;101467.19;;;11.78;56.30
54870;BME280;40756;-37.950;145.008;2022-07-12T02:20:34;101465.86;;;11.76;56.31
54870;BME280;40756;-37.950;145.008;2022-07-12T02:23:03;101460.19;;;11.68;56.06
54870;BME280;40756;-37.950;145.008;2022-07-12T02:25:33;101459.97;;;11.92;56.01
54870;BME280;40756;-37.950;145.008;2022-07-12T02:28:03;101456.88;;;12.08;55.81
54870;BME280;40756;-37.950;145.008;2022-07-12T02:30:33;101456.39;;;11.55;55.68
54870;BME280;40756;-37.950;145.008;2022-07-12T02:33:02;101455.08;;;12.26;56.13
54870;BME280;40756;-37.950;145.008;2022-07-12T02:35:32;101454.01;;;12.15;56.19
54870;BME280;40756;-37.950;145.008;2022-07-12T02:38:02;101451.21;;;12.27;56.18
54870;BME280;40756;-37.950;145.008;2022-07-12T02:40:32;101446.55;;;12.46;55.52
54870;BME280;40756;-37.950;145.008;2022-07-12T02:43:01;101443.82;;;12.10;55.96
54870;BME280;40756;-37.950;145.008;2022-07-12T02:45:31;101441.11;;;12.17;55.76
54870;BME280;40756;-37.950;145.008;2022-07-12T02:48:01;101440.29;;;11.97;56.26
54870;BME280;40756;-37.950;145.008;2022-07-12T02:50:30;101437.56;;;12.04;56.60
54870;BME280;40756;-37.950;145.008;2022-07-12T02:53:02;101434.33;;;12.12;56.50
54870;BME280;40756;-37.950;145.008;2022-07-12T02:55:31;101430.16;;;11.97;56.62
54870;BME280;40756;-37.950;145.008;2022-07-12T02:58:02;101424.76;;;10.83;58.96
54870;BME280;40756;-37.950;145.008;2022-07-12T03:00:31;101420.31;;;12.03;57.52
54870;BME280;40756;-37.950;145.008;2022-07-12T03:03:01;101416.77;;;11.91;57.35
54870;BME280;40756;-37.950;145.008;2022-07-12T03:05:31;101413.10;;;11.97;56.46
54870;BME280;40756;-37.950;145.008;2022-07-12T03:08:00;101411.05;;;11.88;56.85
54870;BME280;40756;-37.950;145.008;2022-07-12T03:10:30;101410.85;;;12.04;56.88
54870;BME280;40756;-37.950;145.008;2022-07-12T03:13:00;101406.96;;;12.40;56.60
54870;BME280;40756;-37.950;145.008;2022-07-12T03:15:30;101402.89;;;12.25;57.31
54870;BME280;40756;-37.950;145.008;2022-07-12T03:18:01;101397.31;;;12.32;56.75
54870;BME280;40756;-37.950;145.008;2022-07-12T03:20:31;101396.36;;;12.21;56.42
54870;BME280;40756;-37.950;145.008;2022-07-12T03:23:01;101393.13;;;12.15;56.48
54870;BME280;40756;-37.950;145.008;2022-07-12T03:25:31;101394.22;;;11.57;57.98
54870;BME280;40756;-37.950;145.008;2022-07-12T03:28:01;101389.55;;;12.43;57.44
54870;BME280;40756;-37.950;145.008;2022-07-12T03:30:31;101386.43;;;11.62;58.17
54870;BME280;40756;-37.950;145.008;2022-07-12T03:33:00;101381.97;;;11.43;58.58
54870;BME280;40756;-37.950;145.008;2022-07-12T03:35:30;101377.66;;;11.26;58.95
54870;BME280;40756;-37.950;145.008;2022-07-12T03:38:00;101374.25;;;11.15;60.50
54870;BME280;40756;-37.950;145.008;2022-07-12T03:40:32;101371.70;;;11.49;59.78
54870;BME280;40756;-37.950;145.008;2022-07-12T03:43:02;101370.47;;;11.47;60.29
54870;BME280;40756;-37.950;145.008;2022-07-12T03:45:32;101368.00;;;11.76;60.55
54870;BME280;40756;-37.950;145.008;2022-07-12T03:48:01;101370.82;;;11.09;61.42
54870;BME280;40756;-37.950;145.008;2022-07-12T03:50:31;101371.18;;;11.59;60.66
54870;BME280;40756;-37.950;145.008;2022-07-12T03:53:01;101370.96;;;11.40;60.77
54870;BME280;40756;-37.950;145.008;2022-07-12T03:55:31;101370.97;;;11.62;60.05
54870;BME280;40756;-37.950;145.008;2022-07-12T03:58:01;101370.51;;;11.08;61.65
54870;BME280;40756;-37.950;145.008;2022-07-12T04:00:31;101370.35;;;11.31;61.18
54870;BME280;40756;-37.950;145.008;2022-07-12T04:03:00;101377.78;;;10.68;61.85
54870;BME280;40756;-37.950;145.008;2022-07-12T04:05:30;101370.87;;;11.14;61.39
54870;BME280;40756;-37.950;145.008;2022-07-12T04:08:00;101368.59;;;11.38;61.50
54870;BME280;40756;-37.950;145.008;2022-07-12T04:10:30;101367.41;;;11.32;61.71
54870;BME280;40756;-37.950;145.008;2022-07-12T04:12:59;101365.51;;;11.04;61.20
54870;BME280;40756;-37.950;145.008;2022-07-12T04:15:29;101360.44;;;11.32;61.34
54870;BME280;40756;-37.950;145.008;2022-07-12T04:17:59;101356.44;;;11.64;59.71
54870;BME280;40756;-37.950;145.008;2022-07-12T04:20:29;101357.46;;;11.64;59.47
54870;BME280;40756;-37.950;145.008;2022-07-12T04:22:58;101357.10;;;12.35;59.24
54870;BME280;40756;-37.950;145.008;2022-07-12T04:25:28;101359.35;;;12.35;58.53
54870;BME280;40756;-37.950;145.008;2022-07-12T04:27:58;101359.36;;;12.16;58.83
54870;BME280;40756;-37.950;145.008;2022-07-12T04:30:28;101361.08;;;11.70;59.46
54870;BME280;40756;-37.950;145.008;2022-07-12T04:32:57;101358.30;;;12.08;59.43
54870;BME280;40756;-37.950;145.008;2022-07-12T04:35:27;101357.43;;;11.64;59.12
54870;BME280;40756;-37.950;145.008;2022-07-12T04:37:57;101359.07;;;11.74;59.63
54870;BME280;40756;-37.950;145.008;2022-07-12T04:40:27;101363.15;;;11.90;59.58
54870;BME280;40756;-37.950;145.008;2022-07-12T04:42:56;101368.20;;;11.97;58.95
54870;BME280;40756;-37.950;145.008;2022-07-12T04:45:26;101368.70;;;11.73;58.63
54870;BME280;40756;-37.950;145.008;2022-07-12T04:47:55;101378.54;;;10.20;61.06
54870;BME280;40756;-37.950;145.008;2022-07-12T04:50:25;101383.05;;;11.20;59.70
54870;BME280;40756;-37.950;145.008;2022-07-12T04:52:58;101385.92;;;11.09;59.20
54870;BME280;40756;-37.950;145.008;2022-07-12T04:55:28;101383.20;;;10.87;59.06
54870;BME280;40756;-37.950;145.008;2022-07-12T04:57:58;101379.28;;;11.12;58.66
54870;BME280;40756;-37.950;145.008;2022-07-12T05:00:28;101379.09;;;11.34;59.30
54870;BME280;40756;-37.950;145.008;2022-07-12T05:02:58;101380.16;;;10.94;59.50
54870;BME280;40756;-37.950;145.008;2022-07-12T05:05:27;101379.23;;;11.03;59.14
54870;BME280;40756;-37.950;145.008;2022-07-12T05:07:57;101376.32;;;11.32;58.98
54870;BME280;40756;-37.950;145.008;2022-07-12T05:10:27;101375.11;;;11.39;58.74
54870;BME280;40756;-37.950;145.008;2022-07-12T05:12:56;101374.96;;;11.43;58.76
54870;BME280;40756;-37.950;145.008;2022-07-12T05:15:26;101377.76;;;11.16;58.93
54870;BME280;40756;-37.950;145.008;2022-07-12T05:17:55;101374.18;;;11.10;58.92
54870;BME280;40756;-37.950;145.008;2022-07-12T05:20:25;101372.44;;;11.18;59.28
54870;BME280;40756;-37.950;145.008;2022-07-12T05:22:55;101374.89;;;11.63;58.53
54870;BME280;40756;-37.950;145.008;2022-07-12T05:25:25;101374.05;;;11.46;58.40
54870;BME280;40756;-37.950;145.008;2022-07-12T05:27:55;101375.85;;;11.29;58.59
54870;BME280;40756;-37.950;145.008;2022-07-12T05:30:24;101373.73;;;11.24;58.18
54870;BME280;40756;-37.950;145.008;2022-07-12T05:32:54;101377.82;;;11.64;58.55
54870;BME280;40756;-37.950;145.008;2022-07-12T05:35:24;101379.31;;;11.95;59.06
54870;BME280;40756;-37.950;145.008;2022-07-12T05:37:53;101382.27;;;11.78;58.43
54870;BME280;40756;-37.950;145.008;2022-07-12T05:40:23;101385.52;;;11.63;58.29
54870;BME280;40756;-37.950;145.008;2022-07-12T05:42:53;101385.25;;;11.92;58.31
54870;BME280;40756;-37.950;145.008;2022-07-12T05:45:23;101385.44;;;11.96;58.44
54870;BME280;40756;-37.950;145.008;2022-07-12T05:47:52;101387.34;;;12.02;58.68
54870;BME280;40756;-37.950;145.008;2022-07-12T05:50:22;101388.39;;;11.88;57.99
54870;BME280;40756;-37.950;145.008;2022-07-12T05:52:51;101383.79;;;11.60;58.45
54870;BME280;40756;-37.950;145.008;2022-07-12T05:55:21;101382.87;;;11.56;58.33
54870;BME280;40756;-37.950;145.008;2022-07-12T05:57:52;101376.73;;;11.36;58.54
54870;BME280;40756;-37.950;145.008;2022-07-12T06:00:21;101375.37;;;11.42;58.46
54870;BME280;40756;-37.950;145.008;2022-07-12T06:02:50;101371.55;;;11.37;58.36
54870;BME280;40756;-37.950;145.008;2022-07-12T06:05:20;101370.58;;;11.51;58.59
54870;BME280;40756;-37.950;145.008;2022-07-12T06:07:50;101369.86;;;11.63;58.58
54870;BME280;40756;-37.950;145.008;2022-07-12T06:10:20;101370.57;;;11.81;58.58
54870;BME280;40756;-37.950;145.008;2022-07-12T06:12:50;101374.13;;;11.83;58.52
54870;BME280;40756;-37.950;145.008;2022-07-12T06:15:19;101374.33;;;11.95;58.15
54870;BME280;40756;-37.950;145.008;2022-07-12T06:17:49;101377.25;;;11.70;58.24
54870;BME280;40756;-37.950;145.008;2022-07-12T06:20:18;101377.34;;;12.06;58.27
54870;BME280;40756;-37.950;145.008;2022-07-12T06:22:48;101378.19;;;12.18;58.32
54870;BME280;40756;-37.950;145.008;2022-07-12T06:25:23;101377.40;;;12.15;58.01
54870;BME280;40756;-37.950;145.008;2022-07-12T06:27:53;101377.48;;;12.21;57.98
54870;BME280;40756;-37.950;145.008;2022-07-12T06:30:41;101374.20;;;12.31;57.85
54870;BME280;40756;-37.950;145.008;2022-07-12T06:33:22;101376.81;;;12.01;57.66
54870;BME280;40756;-37.950;145.008;2022-07-12T06:35:58;101376.85;;;11.98;57.92
54870;BME280;40756;-37.950;145.008;2022-07-12T06:38:28;101378.78;;;11.87;57.73
54870;BME280;40756;-37.950;145.008;2022-07-12T06:41:03;101377.61;;;11.75;57.67
54870;BME280;40756;-37.950;145.008;2022-07-12T06:43:48;101377.69;;;12.24;57.76
54870;BME280;40756;-37.950;145.008;2022-07-12T06:46:17;101377.45;;;11.74;57.91
54870;BME280;40756;-37.950;145.008;2022-07-12T06:48:47;101381.27;;;11.88;57.99
54870;BME280;40756;-37.950;145.008;2022-07-12T06:51:17;101385.72;;;11.80;58.15
54870;BME280;40756;-37.950;145.008;2022-07-12T06:53:47;101389.15;;;11.95;57.86
54870;BME280;40756;-37.950;145.008;2022-07-12T06:56:16;101394.64;;;11.72;57.76
54870;BME280;40756;-37.950;145.008;2022-07-12T06:58:47;101396.78;;;11.56;57.85
54870;BME280;40756;-37.950;145.008;2022-07-12T07:01:17;101398.23;;;11.98;58.14
54870;BME280;40756;-37.950;145.008;2022-07-12T07:03:47;101399.82;;;12.02;57.73
54870;BME280;40756;-37.950;145.008;2022-07-12T07:06:16;101401.94;;;11.61;58.07
54870;BME280;40756;-37.950;145.008;2022-07-12T07:08:46;101406.79;;;11.67;58.07
54870;BME280;40756;-37.950;145.008;2022-07-12T07:11:15;101410.80;;;11.96;58.11
54870;BME280;40756;-37.950;145.008;2022-07-12T07:13:45;101413.21;;;11.92;58.15
54870;BME280;40756;-37.950;145.008;2022-07-12T07:16:16;101413.32;;;11.92;58.02
54870;BME280;40756;-37.950;145.008;2022-07-12T07:18:45;101412.03;;;11.90;58.06
54870;BME280;40756;-37.950;145.008;2022-07-12T07:21:15;101411.12;;;11.91;57.98
54870;BME280;40756;-37.950;145.008;2022-07-12T07:23:45;101414.39;;;11.78;57.91
54870;BME280;40756;-37.950;145.008;2022-07-12T07:26:15;101417.82;;;11.77;58.02
54870;BME280;40756;-37.950;145.008;2022-07-12T07:28:44;101416.84;;;11.80;57.80
54870;BME280;40756;-37.950;145.008;2022-07-12T07:31:14;101421.37;;;11.89;57.86
54870;BME280;40756;-37.950;145.008;2022-07-12T07:33:44;101422.74;;;11.83;57.54
54870;BME280;40756;-37.950;145.008;2022-07-12T07:36:13;101423.37;;;11.91;57.73
54870;BME280;40756;-37.950;145.008;2022-07-12T07:38:43;101423.70;;;11.78;57.90
54870;BME280;40756;-37.950;145.008;2022-07-12T07:41:13;101422.38;;;11.74;58.18
54870;BME280;40756;-37.950;145.008;2022-07-12T07:43:43;101421.64;;;11.68;58.16
54870;BME280;40756;-37.950;145.008;2022-07-12T07:46:13;101420.99;;;11.61;58.46
54870;BME280;40756;-37.950;145.008;2022-07-12T07:48:43;101419.52;;;11.64;58.34
54870;BME280;40756;-37.950;145.008;2022-07-12T07:51:13;101419.43;;;11.63;58.25
54870;BME280;40756;-37.950;145.008;2022-07-12T07:53:42;101418.91;;;11.65;58.14
54870;BME280;40756;-37.950;145.008;2022-07-12T07:56:12;101423.52;;;11.69;57.91
54870;BME280;40756;-37.950;145.008;2022-07-12T07:58:42;101426.17;;;11.22;58.07
54870;BME280;40756;-37.950;145.008;2022-07-12T08:01:13;101428.78;;;11.47;57.97
54870;BME280;40756;-37.950;145.008;2022-07-12T08:03:42;101434.78;;;10.96;58.17
54870;BME280;40756;-37.950;145.008;2022-07-12T08:06:12;101433.10;;;11.78;57.44
54870;BME280;40756;-37.950;145.008;2022-07-12T08:08:42;101431.22;;;11.74;57.22
54870;BME280;40756;-37.950;145.008;2022-07-12T08:11:12;101427.59;;;11.99;57.14
54870;BME280;40756;-37.950;145.008;2022-07-12T08:13:41;101427.45;;;11.99;56.80
54870;BME280;40756;-37.950;145.008;2022-07-12T08:16:11;101434.11;;;11.73;56.52
54870;BME280;40756;-37.950;145.008;2022-07-12T08:18:41;101436.34;;;11.69;56.65
54870;BME280;40756;-37.950;145.008;2022-07-12T08:21:11;101439.34;;;11.76;56.04
54870;BME280;40756;-37.950;145.008;2022-07-12T08:23:45;101438.17;;;11.92;56.14
54870;BME280;40756;-37.950;145.008;2022-07-12T08:26:16;101439.04;;;11.88;56.28
54870;BME280;40756;-37.950;145.008;2022-07-12T08:28:45;101440.36;;;12.09;56.49
54870;BME280;40756;-37.950;145.008;2022-07-12T08:31:15;101440.39;;;12.10;56.37
54870;BME280;40756;-37.950;145.008;2022-07-12T08:33:45;101440.67;;;12.14;56.43
54870;BME280;40756;-37.950;145.008;2022-07-12T08:36:14;101436.81;;;11.52;56.16
54870;BME280;40756;-37.950;145.008;2022-07-12T08:38:44;101438.61;;;12.10;55.81
54870;BME280;40756;-37.950;145.008;2022-07-12T08:41:14;101437.40;;;11.74;56.00
54870;BME280;40756;-37.950;145.008;2022-07-12T08:43:44;101435.61;;;11.78;56.49
54870;BME280;40756;-37.950;145.008;2022-07-12T08:46:14;101434.61;;;12.11;56.38
54870;BME280;40756;-37.950;145.008;2022-07-12T08:48:54;101434.67;;;11.58;57.34
54870;BME280;40756;-37.950;145.008;2022-07-12T08:51:26;101440.71;;;11.89;56.55
54870;BME280;40756;-37.950;145.008;2022-07-12T08:54:12;101441.60;;;12.14;56.54
54870;BME280;40756;-37.950;145.008;2022-07-12T08:56:43;101440.41;;;12.09;56.54
54870;BME280;40756;-37.950;145.008;2022-07-12T09:00:19;101442.46;;;11.95;56.55
54870;BME280;40756;-37.950;145.008;2022-07-12T09:02:52;101442.61;;;11.83;56.66
54870;BME280;40756;-37.950;145.008;2022-07-12T09:05:25;101442.87;;;11.67;56.53
54870;BME280;40756;-37.950;145.008;2022-07-12T09:08:03;101445.02;;;11.48;56.70
54870;BME280;40756;-37.950;145.008;2022-07-12T09:10:34;101449.93;;;11.32;56.75
54870;BME280;40756;-37.950;145.008;2022-07-12T09:13:12;101449.82;;;11.28;56.56
54870;BME280;40756;-37.950;145.008;2022-07-12T09:15:42;101451.46;;;11.61;56.86
54870;BME280;40756;-37.950;145.008;2022-07-12T09:18:13;101456.33;;;11.27;56.99
54870;BME280;40756;-37.950;145.008;2022-07-12T09:20:45;101455.05;;;11.05;56.94
54870;BME280;40756;-37.950;145.008;2022-07-12T09:23:19;101459.01;;;11.36;57.18
54870;BME280;40756;-37.950;145.008;2022-07-12T09:25:49;101458.76;;;11.04;57.29
54870;BME280;40756;-37.950;145.008;2022-07-12T09:28:19;101461.43;;;11.00;57.56
54870;BME280;40756;-37.950;145.008;2022-07-12T09:30:51;101465.71;;;10.98;57.38
54870;BME280;40756;-37.950;145.008;2022-07-12T09:33:22;101468.59;;;10.96;57.37
54870;BME280;40756;-37.950;145.008;2022-07-12T09:36:08;101469.88;;;10.91;57.34
54870;BME280;40756;-37.950;145.008;2022-07-12T09:38:38;101469.18;;;10.82;57.23
54870;BME280;40756;-37.950;145.008;2022-07-12T09:41:09;101466.11;;;10.97;57.36
54870;BME280;40756;-37.950;145.008;2022-07-12T09:43:38;101469.36;;;10.62;57.37
54870;BME280;40756;-37.950;145.008;2022-07-12T09:46:08;101469.74;;;10.90;57.31
54870;BME280;40756;-37.950;145.008;2022-07-12T09:48:39;101473.78;;;10.76;57.25
54870;BME280;40756;-37.950;145.008;2022-07-12T09:51:15;101470.79;;;10.65;57.27
54870;BME280;40756;-37.950;145.008;2022-07-12T09:53:47;101470.85;;;10.58;57.46
54870;BME280;40756;-37.950;145.008;2022-07-12T09:56:18;101470.21;;;10.61;57.52
54870;BME280;40756;-37.950;145.008;2022-07-12T09:58:53;101474.50;;;10.51;57.78
54870;BME280;40756;-37.950;145.008;2022-07-12T10:01:24;101476.02;;;10.38;57.79
54870;BME280;40756;-37.950;145.008;2022-07-12T10:03:58;101477.40;;;10.39;57.47
54870;BME280;40756;-37.950;145.008;2022-07-12T10:06:29;101478.81;;;10.42;57.51
54870;BME280;40756;-37.950;145.008;2022-07-12T10:09:19;101480.60;;;11.02;57.60
54870;BME280;40756;-37.950;145.008;2022-07-12T10:11:49;101484.65;;;10.42;57.76
54870;BME280;40756;-37.950;145.008;2022-07-12T10:14:19;101482.28;;;10.43;57.70
54870;BME280;40756;-37.950;145.008;2022-07-12T10:16:51;101480.16;;;10.18;57.66
54870;BME280;40756;-37.950;145.008;2022-07-12T10:19:26;101482.02;;;10.44;57.77
54870;BME280;40756;-37.950;145.008;2022-07-12T10:21:58;101479.70;;;10.37;57.76
54870;BME280;40756;-37.950;145.008;2022-07-12T10:25:00;101482.47;;;10.34;57.63
54870;BME280;40756;-37.950;145.008;2022-07-12T10:27:33;101481.55;;;10.11;57.66
54870;BME280;40756;-37.950;145.008;2022-07-12T10:30:21;101480.93;;;10.18;57.65
54870;BME280;40756;-37.950;145.008;2022-07-12T10:32:53;101484.00;;;10.11;57.57
54870;BME280;40756;-37.950;145.008;2022-07-12T10:35:24;101482.42;;;10.09;57.63
54870;BME280;40756;-37.950;145.008;2022-07-12T10:38:25;101483.51;;;9.73;57.79
54870;BME280;40756;-37.950;145.008;2022-07-12T10:40:55;101482.00;;;10.72;57.91
54870;BME280;40756;-37.950;145.008;2022-07-12T10:43:27;101484.09;;;10.16;57.85
54870;BME280;40756;-37.950;145.008;2022-07-12T10:46:05;101484.84;;;10.22;57.92
54870;BME280;40756;-37.950;145.008;2022-07-12T10:48:43;101486.46;;;10.47;57.48
54870;BME280;40756;-37.950;145.008;2022-07-12T10:51:17;101484.73;;;10.54;57.67
54870;BME280;40756;-37.950;145.008;2022-07-12T10:53:48;101483.97;;;10.57;57.17
54870;BME280;40756;-37.950;145.008;2022-07-12T10:56:20;101484.31;;;10.83;56.86
54870;BME280;40756;-37.950;145.008;2022-07-12T10:58:53;101481.52;;;10.57;57.26
54870;BME280;40756;-37.950;145.008;2022-07-12T11:01:24;101484.62;;;10.54;57.29
54870;BME280;40756;-37.950;145.008;2022-07-12T11:04:03;101489.25;;;10.50;57.50
54870;BME280;40756;-37.950;145.008;2022-07-12T11:06:36;101490.74;;;10.71;57.70
54870;BME280;40756;-37.950;145.008;2022-07-12T11:09:07;101495.02;;;10.68;57.85
54870;BME280;40756;-37.950;145.008;2022-07-12T11:11:43;101498.09;;;10.71;57.78
54870;BME280;40756;-37.950;145.008;2022-07-12T11:14:22;101500.54;;;10.73;57.61
54870;BME280;40756;-37.950;145.008;2022-07-12T11:16:53;101499.39;;;10.67;57.42
54870;BME280;40756;-37.950;145.008;2022-07-12T11:19:24;101501.68;;;10.46;57.83
54870;BME280;40756;-37.950;145.008;2022-07-12T11:21:55;101502.32;;;10.46;57.66
54870;BME280;40756;-37.950;145.008;2022-07-12T11:24:26;101502.66;;;10.74;57.57
54870;BME280;40756;-37.950;145.008;2022-07-12T11:26:57;101502.84;;;10.44;57.74
54870;BME280;40756;-37.950;145.008;2022-07-12T11:29:27;101503.94;;;10.35;57.81
54870;BME280;40756;-37.950;145.008;2022-07-12T11:32:03;101506.80;;;10.50;57.97
54870;BME280;40756;-37.950;145.008;2022-07-12T11:34:34;101507.36;;;10.41;57.69
54870;BME280;40756;-37.950;145.008;2022-07-12T11:37:04;101509.03;;;10.03;57.88
54870;BME280;40756;-37.950;145.008;2022-07-12T11:39:35;101510.65;;;10.31;57.65
54870;BME280;40756;-37.950;145.008;2022-07-12T11:42:06;101509.29;;;9.95;57.56
54870;BME280;40756;-37.950;145.008;2022-07-12T11:44:44;101510.08;;;10.12;57.49
54870;BME280;40756;-37.950;145.008;2022-07-12T11:47:17;101510.21;;;10.21;57.78
54870;BME280;40756;-37.950;145.008;2022-07-12T11:49:49;101511.19;;;9.97;57.80
54870;BME280;40756;-37.950;145.008;2022-07-12T11:52:22;101512.50;;;9.93;57.71
54870;BME280;40756;-37.950;145.008;2022-07-12T11:54:52;101513.45;;;10.11;57.78
54870;BME280;40756;-37.950;145.008;2022-07-12T11:57:23;101513.34;;;10.20;57.99
54870;BME280;40756;-37.950;145.008;2022-07-12T11:59:52;101510.72;;;10.00;58.37
54870;BME280;40756;-37.950;145.008;2022-07-12T12:02:22;101506.61;;;10.34;58.24
54870;BME280;40756;-37.950;145.008;2022-07-12T12:04:54;101508.07;;;10.30;58.44
54870;BME280;40756;-37.950;145.008;2022-07-12T12:07:26;101508.27;;;10.57;58.08
54870;BME280;40756;-37.950;145.008;2022-07-12T12:10:05;101506.63;;;10.14;58.43
54870;BME280;40756;-37.950;145.008;2022-07-12T12:12:41;101503.72;;;10.30;57.25
54870;BME280;40756;-37.950;145.008;2022-07-12T12:15:12;101502.97;;;10.48;57.48
54870;BME280;40756;-37.950;145.008;2022-07-12T12:17:51;101501.28;;;10.28;56.29
54870;BME280;40756;-37.950;145.008;2022-07-12T12:20:22;101503.87;;;10.59;55.00
54870;BME280;40756;-37.950;145.008;2022-07-12T12:22:54;101504.67;;;10.43;55.60
54870;BME280;40756;-37.950;145.008;2022-07-12T12:25:24;101505.58;;;10.51;55.94
54870;BME280;40756;-37.950;145.008;2022-07-12T12:27:57;101508.67;;;10.36;56.00
54870;BME280;40756;-37.950;145.008;2022-07-12T12:30:27;101509.59;;;10.19;56.00
54870;BME280;40756;-37.950;145.008;2022-07-12T12:32:58;101510.11;;;10.01;55.80
54870;BME280;40756;-37.950;145.008;2022-07-12T12:35:34;101508.04;;;9.74;56.32
54870;BME280;40756;-37.950;145.008;2022-07-12T12:38:12;101513.21;;;9.64;56.97
54870;BME280;40756;-37.950;145.008;2022-07-12T12:40:51;101513.19;;;9.76;56.93